Time;durP1;ratioP1;P1;durP2;ratioP2;P2;SDS_P1;SDS_P2;PMS_P1;PMS_P2;Temp;Humidity;BMP_temperature;BMP_pressure;BME280_temperature;BME280_humidity;BME280_pressure;Samples;Min_cycle;Max_cycle;Signal;HPM_P1;HPM_P2
2021/09/21 00:01:29;;;;;;;;;;;9.90;99.90;;;;;;4925311;28;23052;-73
2021/09/21 00:03:55;;;;;;;;;;;9.90;99.90;;;;;;4925617;29;19941;-73
2021/09/21 00:06:22;;;;;;;;;;;9.90;99.90;;;;;;4923153;29;19927;-72
2021/09/21 00:08:49;;;;;;;;;;;9.90;99.90;;;;;;4924697;28;19934;-72
2021/09/21 00:11:17;;;;;;;;;;;9.80;99.90;;;;;;4923610;29;20014;-73
2021/09/21 00:13:44;;;;;;;;;;;9.80;99.90;;;;;;4925415;28;19926;-72
2021/09/21 00:16:10;;;;;;;;;;;9.70;99.90;;;;;;4920763;28;19933;-73
2021/09/21 00:18:37;;;;;;;;;;;9.70;99.90;;;;;;4922878;28;19933;-73
2021/09/21 00:21:04;;;;;;;;;;;9.70;99.90;;;;;;4925533;29;19934;-71
2021/09/21 00:23:31;;;;;;;;;;;9.70;99.90;;;;;;4924225;29;19934;-72
2021/09/21 00:25:58;;;;;;;;;;;9.60;99.90;;;;;;4925212;29;20005;-73
2021/09/21 00:28:26;;;;;;;;;;;9.50;99.90;;;;;;4926149;29;20017;-72
2021/09/21 00:30:53;;;;;;;;;;;9.50;99.90;;;;;;4924441;29;19926;-73
2021/09/21 00:33:22;;;;;;;;;;;9.40;99.90;;;;;;4922975;29;19931;-72
2021/09/21 00:35:49;;;;;;;;;;;9.40;99.90;;;;;;4923710;29;19927;-72
2021/09/21 00:38:17;;;;;;;;;;;9.40;99.90;;;;;;4927056;29;20378;-73
2021/09/21 00:40:44;;;;;;;;;;;9.40;99.90;;;;;;4921927;29;19935;-71
2021/09/21 00:43:11;;;;;;;;;;;9.50;99.90;;;;;;4926359;29;20008;-72
2021/09/21 00:45:39;;;;;;;;;;;9.30;99.90;;;;;;4922988;29;19927;-72
2021/09/21 00:48:07;;;;;;;;;;;9.20;99.90;;;;;;4922444;29;19927;-73
2021/09/21 00:50:35;;;;;;;;;;;9.30;99.90;;;;;;4920776;29;19927;-73
2021/09/21 00:53:02;;;;;;;;;;;9.20;99.90;;;;;;4923073;28;19943;-73
2021/09/21 00:55:29;;;;;;;;;;;9.20;99.90;;;;;;4923513;29;19935;-72
2021/09/21 00:57:55;;;;;;;;;;;9.10;99.90;;;;;;4923691;29;19945;-72
2021/09/21 01:00:22;;;;;;;;;;;9.10;99.90;;;;;;4923559;29;20034;-73
2021/09/21 01:02:51;;;;;;;;;;;8.90;99.90;;;;;;4922577;29;19927;-72
2021/09/21 01:05:18;;;;;;;;;;;8.90;99.90;;;;;;4923320;29;19935;-74
2021/09/21 01:07:45;;;;;;;;;;;8.80;99.90;;;;;;4924952;28;20293;-73
2021/09/21 01:10:13;;;;;;;;;;;8.90;99.90;;;;;;4923436;29;19931;-73
2021/09/21 01:12:39;;;;;;;;;;;8.90;99.90;;;;;;4925524;29;19933;-72
2021/09/21 01:15:07;;;;;;;;;;;9.00;99.90;;;;;;4924177;29;19927;-73
2021/09/21 01:17:34;;;;;;;;;;;9.10;99.90;;;;;;4923255;28;20292;-74
2021/09/21 01:20:02;;;;;;;;;;;9.00;99.90;;;;;;4924345;29;19962;-73
2021/09/21 01:22:30;;;;;;;;;;;8.90;99.90;;;;;;4926749;29;19927;-73
2021/09/21 01:24:56;;;;;;;;;;;8.90;99.90;;;;;;4921723;28;19989;-73
2021/09/21 01:27:23;;;;;;;;;;;8.90;99.90;;;;;;4922820;28;19941;-74
2021/09/21 01:29:50;;;;;;;;;;;8.80;99.90;;;;;;4924884;29;19927;-71
2021/09/21 01:32:19;;;;;;;;;;;8.80;99.90;;;;;;4924771;29;19927;-72
2021/09/21 01:34:46;;;;;;;;;;;8.90;99.90;;;;;;4926006;29;19934;-72
2021/09/21 01:37:13;;;;;;;;;;;8.90;99.90;;;;;;4924912;29;19930;-73
2021/09/21 01:39:42;;;;;;;;;;;8.90;99.90;;;;;;4924105;29;20444;-72
2021/09/21 01:42:08;;;;;;;;;;;9.00;99.90;;;;;;4922417;28;19930;-72
2021/09/21 01:44:35;;;;;;;;;;;9.10;99.90;;;;;;4928807;29;20321;-72
2021/09/21 01:47:05;;;;;;;;;;;9.10;99.90;;;;;;4925643;29;20400;-72
2021/09/21 01:49:37;;;;;;;;;;;9.00;99.90;;;;;;4923057;29;19942;-72
2021/09/21 01:52:10;;;;;;;;;;;8.80;99.90;;;;;;4925722;29;20378;-72
2021/09/21 01:54:49;;;;;;;;;;;8.70;99.90;;;;;;4921332;29;19931;-72
2021/09/21 02:00:01;;;;;;;;;;;8.70;99.90;;;;;;4925743;29;19933;-72
2021/09/21 02:02:28;;;;;;;;;;;8.70;99.90;;;;;;4926120;29;20475;-72
2021/09/21 02:04:54;;;;;;;;;;;8.70;99.90;;;;;;4926808;29;19927;-72
2021/09/21 02:07:21;;;;;;;;;;;8.70;99.90;;;;;;4925498;29;20017;-72
2021/09/21 02:09:48;;;;;;;;;;;8.60;99.90;;;;;;4929843;28;19935;-72
2021/09/21 02:12:14;;;;;;;;;;;8.60;99.90;;;;;;4926353;29;19933;-71
2021/09/21 02:14:42;;;;;;;;;;;8.60;99.90;;;;;;4928046;28;19927;-72
2021/09/21 02:17:09;;;;;;;;;;;8.50;99.90;;;;;;4924845;29;19926;-72
2021/09/21 02:19:37;;;;;;;;;;;8.50;99.90;;;;;;4926654;28;19927;-74
2021/09/21 02:22:04;;;;;;;;;;;8.50;99.90;;;;;;4926790;29;19934;-72
2021/09/21 02:24:31;;;;;;;;;;;8.40;99.90;;;;;;4928431;29;20298;-72
2021/09/21 02:26:57;;;;;;;;;;;8.50;99.90;;;;;;4926644;29;19926;-72
2021/09/21 02:29:25;;;;;;;;;;;8.50;99.90;;;;;;4926667;29;19973;-73
2021/09/21 02:31:54;;;;;;;;;;;8.50;99.90;;;;;;4925554;29;19934;-72
2021/09/21 02:34:20;;;;;;;;;;;8.50;99.90;;;;;;4927376;29;19927;-71
2021/09/21 02:36:47;;;;;;;;;;;8.50;99.90;;;;;;4925867;29;19949;-72
2021/09/21 02:39:14;;;;;;;;;;;8.50;99.90;;;;;;4924825;28;19927;-72
2021/09/21 02:41:40;;;;;;;;;;;8.40;99.90;;;;;;4924797;28;20463;-71
2021/09/21 02:44:07;;;;;;;;;;;8.40;99.90;;;;;;4924819;28;19934;-72
2021/09/21 02:46:34;;;;;;;;;;;8.50;99.90;;;;;;4926355;29;19930;-72
2021/09/21 02:49:02;;;;;;;;;;;8.50;99.90;;;;;;4925657;29;20412;-72
2021/09/21 02:51:28;;;;;;;;;;;8.50;99.90;;;;;;4926575;28;19933;-72
2021/09/21 02:53:55;;;;;;;;;;;8.60;99.90;;;;;;4923862;29;19926;-72
2021/09/21 02:56:22;;;;;;;;;;;8.60;99.90;;;;;;4924570;29;20012;-72
2021/09/21 02:58:48;;;;;;;;;;;8.50;99.90;;;;;;4925267;29;20005;-71
2021/09/21 03:01:18;;;;;;;;;;;8.60;99.90;;;;;;4923184;29;19938;-72
2021/09/21 03:03:48;;;;;;;;;;;8.50;99.90;;;;;;4922772;29;19931;-72
2021/09/21 03:06:23;;;;;;;;;;;8.50;99.90;;;;;;4923062;28;19927;-72
2021/09/21 03:08:51;;;;;;;;;;;8.50;99.90;;;;;;4923782;29;19974;-73
2021/09/21 03:11:20;;;;;;;;;;;8.50;99.90;;;;;;4924407;28;20473;-73
2021/09/21 03:17:06;;;;;;;;;;;8.50;99.90;;;;;;4926245;29;19926;-72
2021/09/21 03:19:27;;;;;;;;;;;8.40;99.90;;;;;;4920868;28;19938;-72
2021/09/21 03:21:56;;;;;;;;;;;8.40;99.90;;;;;;4919718;29;20412;-72
2021/09/21 03:24:23;;;;;;;;;;;8.30;99.90;;;;;;4925112;28;19927;-73
2021/09/21 03:26:50;;;;;;;;;;;8.30;99.90;;;;;;4922666;29;19935;-73
2021/09/21 03:29:17;;;;;;;;;;;8.40;99.90;;;;;;4922066;29;19927;-72
2021/09/21 03:31:44;;;;;;;;;;;8.30;99.90;;;;;;4920746;29;19927;-72
2021/09/21 03:34:10;;;;;;;;;;;8.30;99.90;;;;;;4925226;29;20469;-72
2021/09/21 03:36:37;;;;;;;;;;;8.20;99.90;;;;;;4921831;29;19953;-72
2021/09/21 03:39:05;;;;;;;;;;;8.20;99.90;;;;;;4924733;29;19981;-72
2021/09/21 03:41:32;;;;;;;;;;;8.10;99.90;;;;;;4921885;29;19927;-72
2021/09/21 03:43:58;;;;;;;;;;;8.10;99.90;;;;;;4923442;28;22765;-72
2021/09/21 03:46:25;;;;;;;;;;;8.10;99.90;;;;;;4923811;29;20412;-72
2021/09/21 03:48:54;;;;;;;;;;;8.10;99.90;;;;;;4922531;29;19934;-72
2021/09/21 03:51:21;;;;;;;;;;;8.10;99.90;;;;;;4924620;29;19934;-72
2021/09/21 03:53:47;;;;;;;;;;;8.00;99.90;;;;;;4920980;29;20033;-72
2021/09/21 03:56:15;;;;;;;;;;;8.00;99.90;;;;;;4925168;29;19927;-72
2021/09/21 03:58:42;;;;;;;;;;;7.90;99.90;;;;;;4924852;29;20317;-72
2021/09/21 04:01:09;;;;;;;;;;;7.90;99.90;;;;;;4924066;28;19930;-72
2021/09/21 04:03:35;;;;;;;;;;;7.80;99.90;;;;;;4925592;28;19926;-72
2021/09/21 04:06:02;;;;;;;;;;;7.80;99.90;;;;;;4922726;29;19933;-72
2021/09/21 04:08:28;;;;;;;;;;;7.80;99.90;;;;;;4923951;28;20289;-72
2021/09/21 04:10:55;;;;;;;;;;;7.80;99.90;;;;;;4921506;29;19934;-72
2021/09/21 04:13:23;;;;;;;;;;;7.70;99.90;;;;;;4927199;28;20382;-72
2021/09/21 04:15:50;;;;;;;;;;;7.80;99.90;;;;;;4924443;29;19935;-72
2021/09/21 04:18:16;;;;;;;;;;;7.70;99.90;;;;;;4924632;29;19937;-72
2021/09/21 04:20:43;;;;;;;;;;;7.70;99.90;;;;;;4922949;29;20017;-73
2021/09/21 04:23:10;;;;;;;;;;;7.70;99.90;;;;;;4925383;29;19963;-73
2021/09/21 04:25:37;;;;;;;;;;;7.70;99.90;;;;;;4924218;29;19926;-72
2021/09/21 04:28:03;;;;;;;;;;;7.70;99.90;;;;;;4924705;29;19938;-73
2021/09/21 04:30:32;;;;;;;;;;;7.70;99.90;;;;;;4925839;28;20030;-80
2021/09/21 04:32:58;;;;;;;;;;;7.60;99.90;;;;;;4924418;29;19961;-81
2021/09/21 04:35:25;;;;;;;;;;;7.50;99.90;;;;;;4926083;29;20029;-82
2021/09/21 04:37:52;;;;;;;;;;;7.50;99.90;;;;;;4924738;29;19934;-80
2021/09/21 04:40:19;;;;;;;;;;;7.50;99.90;;;;;;4925130;28;19928;-80
2021/09/21 04:42:45;;;;;;;;;;;7.50;99.90;;;;;;4927071;29;20029;-80
2021/09/21 04:45:12;;;;;;;;;;;7.40;99.90;;;;;;4926368;29;19931;-82
2021/09/21 04:47:40;;;;;;;;;;;7.30;99.90;;;;;;4929010;29;19927;-81
2021/09/21 04:50:07;;;;;;;;;;;7.30;99.90;;;;;;4930432;29;19949;-78
2021/09/21 04:52:34;;;;;;;;;;;7.20;99.90;;;;;;4924359;29;19927;-81
2021/09/21 04:55:01;;;;;;;;;;;7.20;99.90;;;;;;4926279;29;19969;-79
2021/09/21 04:57:27;;;;;;;;;;;7.20;99.90;;;;;;4928915;28;19925;-79
2021/09/21 04:59:54;;;;;;;;;;;7.20;99.90;;;;;;4928912;28;19969;-79
2021/09/21 05:02:21;;;;;;;;;;;7.20;99.90;;;;;;4926313;28;20306;-80
2021/09/21 05:04:49;;;;;;;;;;;7.20;99.90;;;;;;4921981;29;20877;-80
2021/09/21 05:07:15;;;;;;;;;;;7.20;99.90;;;;;;4925579;28;20296;-79
2021/09/21 05:09:42;;;;;;;;;;;7.10;99.90;;;;;;4922268;28;20378;-78
2021/09/21 05:12:09;;;;;;;;;;;7.10;99.90;;;;;;4922508;28;19935;-78
2021/09/21 05:14:35;;;;;;;;;;;7.10;99.90;;;;;;4923136;29;20397;-79
2021/09/21 05:17:02;;;;;;;;;;;7.20;99.90;;;;;;4921079;28;19941;-78
2021/09/21 05:19:29;;;;;;;;;;;7.20;99.90;;;;;;4920772;28;19953;-78
2021/09/21 05:21:57;;;;;;;;;;;7.20;99.90;;;;;;4912083;28;19927;-79
2021/09/21 05:24:23;;;;;;;;;;;7.20;99.90;;;;;;4920787;28;20018;-78
2021/09/21 05:26:50;;;;;;;;;;;7.20;99.90;;;;;;4919031;28;19945;-79
2021/09/21 05:29:17;;;;;;;;;;;7.20;99.90;;;;;;4922749;28;19933;-78
2021/09/21 05:31:43;;;;;;;;;;;7.20;99.90;;;;;;4922036;29;19990;-79
2021/09/21 05:34:10;;;;;;;;;;;7.20;99.90;;;;;;4925237;29;21274;-79
2021/09/21 05:36:36;;;;;;;;;;;7.20;99.90;;;;;;4925866;29;19927;-79
2021/09/21 05:39:05;;;;;;;;;;;7.30;99.90;;;;;;4925327;29;20661;-79
2021/09/21 05:41:31;;;;;;;;;;;7.30;99.90;;;;;;4926939;29;19963;-80
2021/09/21 05:43:58;;;;;;;;;;;7.30;99.90;;;;;;4922971;29;19941;-79
2021/09/21 05:46:25;;;;;;;;;;;7.30;99.90;;;;;;4925211;28;20022;-79
2021/09/21 05:48:53;;;;;;;;;;;7.30;99.90;;;;;;4923292;29;20022;-78
2021/09/21 05:51:20;;;;;;;;;;;7.30;99.90;;;;;;4921241;29;20014;-79
2021/09/21 05:53:47;;;;;;;;;;;7.30;99.90;;;;;;4925435;29;20401;-78
2021/09/21 05:56:15;;;;;;;;;;;7.40;99.90;;;;;;4924691;29;19927;-79
2021/09/21 05:58:42;;;;;;;;;;;7.50;99.90;;;;;;4926537;29;19933;-76
2021/09/21 06:01:09;;;;;;;;;;;7.50;99.90;;;;;;4924690;28;19931;-76
2021/09/21 06:03:35;;;;;;;;;;;7.60;99.90;;;;;;4937899;28;19933;-77
2021/09/21 06:06:04;;;;;;;;;;;7.60;99.90;;;;;;4928628;29;20001;-77
2021/09/21 06:08:31;;;;;;;;;;;7.70;99.90;;;;;;4929030;29;19942;-77
2021/09/21 06:10:58;;;;;;;;;;;7.70;99.90;;;;;;4922425;28;19935;-77
2021/09/21 06:13:26;;;;;;;;;;;7.70;99.90;;;;;;4924931;28;19936;-76
2021/09/21 06:15:52;;;;;;;;;;;7.70;99.90;;;;;;4921727;29;20009;-76
2021/09/21 06:18:19;;;;;;;;;;;7.70;99.90;;;;;;4927958;28;20010;-76
2021/09/21 06:20:46;;;;;;;;;;;7.70;99.90;;;;;;4928678;29;19926;-78
2021/09/21 06:23:13;;;;;;;;;;;7.80;99.90;;;;;;4918173;28;20321;-78
2021/09/21 06:25:40;;;;;;;;;;;7.80;99.90;;;;;;4917578;28;19934;-75
2021/09/21 06:28:07;;;;;;;;;;;7.90;99.90;;;;;;4925222;28;20283;-79
2021/09/21 06:30:38;;;;;;;;;;;7.90;99.90;;;;;;4924720;29;19927;-78
2021/09/21 06:33:05;;;;;;;;;;;8.00;99.90;;;;;;4927934;29;19934;-78
2021/09/21 06:35:31;;;;;;;;;;;8.10;99.90;;;;;;4928598;29;19927;-78
2021/09/21 06:37:58;;;;;;;;;;;8.10;99.90;;;;;;4924777;29;20006;-79
2021/09/21 06:40:26;;;;;;;;;;;8.10;99.90;;;;;;4924965;29;19927;-79
2021/09/21 06:42:53;;;;;;;;;;;8.30;99.90;;;;;;4927222;29;19927;-77
2021/09/21 06:45:20;;;;;;;;;;;8.40;99.90;;;;;;4924455;28;19945;-79
2021/09/21 06:47:48;;;;;;;;;;;8.50;99.90;;;;;;4933285;29;19927;-78
2021/09/21 06:50:15;;;;;;;;;;;8.60;99.90;;;;;;4941906;28;19996;-77
2021/09/21 06:52:42;;;;;;;;;;;8.70;99.90;;;;;;4932866;29;19974;-77
2021/09/21 06:55:09;;;;;;;;;;;8.80;99.90;;;;;;4934285;28;20389;-77
2021/09/21 06:57:36;;;;;;;;;;;8.90;99.90;;;;;;4924976;28;19949;-77
2021/09/21 07:00:04;;;;;;;;;;;9.10;99.90;;;;;;4926581;28;19926;-77
2021/09/21 07:02:31;;;;;;;;;;;9.20;99.90;;;;;;4925858;28;19954;-77
2021/09/21 07:04:59;;;;;;;;;;;9.30;99.90;;;;;;4921652;28;20042;-76
2021/09/21 07:07:25;;;;;;;;;;;9.40;99.90;;;;;;4919855;28;19930;-78
2021/09/21 07:09:52;;;;;;;;;;;9.60;99.90;;;;;;4921798;28;19933;-81
2021/09/21 07:12:19;;;;;;;;;;;9.70;99.90;;;;;;4921143;28;20287;-77
2021/09/21 07:14:45;;;;;;;;;;;9.80;99.90;;;;;;4922145;28;20442;-77
2021/09/21 07:17:12;;;;;;;;;;;9.90;99.90;;;;;;4922461;29;19931;-79
2021/09/21 07:19:39;;;;;;;;;;;9.90;99.90;;;;;;4923367;29;20018;-78
2021/09/21 07:22:07;;;;;;;;;;;10.00;99.90;;;;;;4925298;29;19934;-78
2021/09/21 07:24:34;;;;;;;;;;;10.10;99.90;;;;;;4924328;28;20040;-79
2021/09/21 07:27:00;;;;;;;;;;;10.30;99.90;;;;;;4924408;28;19934;-77
2021/09/21 07:29:27;;;;;;;;;;;11.10;99.90;;;;;;4926201;29;19938;-79
2021/09/21 07:31:54;;;;;;;;;;;13.30;99.90;;;;;;4923514;28;19931;-77
2021/09/21 07:34:20;;;;;;;;;;;14.80;99.90;;;;;;4922755;29;20394;-78
2021/09/21 07:36:51;;;;;;;;;;;16.20;99.90;;;;;;4924464;29;19937;-80
2021/09/21 07:39:20;;;;;;;;;;;16.20;99.90;;;;;;4924290;28;19927;-79
2021/09/21 07:41:47;;;;;;;;;;;16.80;99.90;;;;;;4925233;29;19927;-78
2021/09/21 07:44:13;;;;;;;;;;;17.40;99.90;;;;;;4922172;28;19980;-78
2021/09/21 07:46:40;;;;;;;;;;;18.50;99.90;;;;;;4923013;28;19931;-80
2021/09/21 07:49:06;;;;;;;;;;;17.60;99.90;;;;;;4930683;28;19927;-77
2021/09/21 07:51:33;;;;;;;;;;;17.50;99.90;;;;;;4922619;29;19927;-77
2021/09/21 07:54:00;;;;;;;;;;;17.50;99.90;;;;;;4926379;28;19931;-78
2021/09/21 07:56:28;;;;;;;;;;;15.80;99.90;;;;;;4923488;29;19926;-79
2021/09/21 07:58:55;;;;;;;;;;;15.70;99.90;;;;;;4925241;28;20021;-80
2021/09/21 08:01:22;;;;;;;;;;;15.50;99.90;;;;;;4920773;28;19981;-79
2021/09/21 08:03:49;;;;;;;;;;;16.00;99.90;;;;;;4923482;28;19927;-79
2021/09/21 08:06:16;;;;;;;;;;;16.10;99.90;;;;;;4922123;29;19930;-78
2021/09/21 08:08:43;;;;;;;;;;;16.90;99.90;;;;;;4921589;29;19973;-79
2021/09/21 08:11:11;;;;;;;;;;;16.30;99.90;;;;;;4920533;29;20282;-79
2021/09/21 08:13:39;;;;;;;;;;;16.30;99.90;;;;;;4920666;29;19989;-78
2021/09/21 08:16:06;;;;;;;;;;;16.20;99.90;;;;;;4922480;28;20457;-79
2021/09/21 08:18:33;;;;;;;;;;;17.20;99.90;;;;;;4922152;28;20390;-78
2021/09/21 08:21:00;;;;;;;;;;;17.60;99.90;;;;;;4919311;29;19978;-79
2021/09/21 08:23:27;;;;;;;;;;;17.10;99.90;;;;;;4924727;28;20034;-80
2021/09/21 08:25:54;;;;;;;;;;;16.50;99.90;;;;;;4922137;29;19988;-79
2021/09/21 08:28:21;;;;;;;;;;;17.00;99.90;;;;;;4924312;29;19941;-79
2021/09/21 08:30:49;;;;;;;;;;;17.70;99.90;;;;;;4931154;28;20006;-79
2021/09/21 08:33:16;;;;;;;;;;;16.90;99.90;;;;;;4925058;28;19934;-77
2021/09/21 08:35:42;;;;;;;;;;;17.20;99.90;;;;;;4922572;28;19970;-76
2021/09/21 08:38:09;;;;;;;;;;;18.60;99.90;;;;;;4922924;28;19935;-75
2021/09/21 08:40:36;;;;;;;;;;;18.00;99.90;;;;;;4923947;29;19960;-74
2021/09/21 08:43:02;;;;;;;;;;;18.20;99.90;;;;;;4927246;29;19954;-78
2021/09/21 08:45:29;;;;;;;;;;;17.60;99.90;;;;;;4920575;29;20013;-77
2021/09/21 08:47:57;;;;;;;;;;;17.00;99.90;;;;;;4926471;29;19933;-77
2021/09/21 08:50:24;;;;;;;;;;;17.10;99.90;;;;;;4922734;28;19937;-78
2021/09/21 08:52:51;;;;;;;;;;;17.60;99.90;;;;;;4922698;28;20289;-77
2021/09/21 08:55:18;;;;;;;;;;;17.60;99.90;;;;;;4920809;28;19939;-75
2021/09/21 08:57:45;;;;;;;;;;;17.70;99.90;;;;;;4922142;29;19937;-78
2021/09/21 09:00:14;;;;;;;;;;;17.90;99.90;;;;;;4918525;28;19931;-78
2021/09/21 09:02:40;;;;;;;;;;;19.20;99.90;;;;;;4924339;28;20386;-79
2021/09/21 09:05:11;;;;;;;;;;;19.00;99.90;;;;;;4923354;28;19927;-78
2021/09/21 09:07:49;;;;;;;;;;;19.10;99.90;;;;;;4923551;29;19935;-75
2021/09/21 09:10:16;;;;;;;;;;;19.00;99.90;;;;;;4922753;29;19947;-76
2021/09/21 09:12:43;;;;;;;;;;;18.00;99.90;;;;;;4922172;28;20092;-79
2021/09/21 09:15:10;;;;;;;;;;;18.00;99.90;;;;;;4924914;29;19942;-80
2021/09/21 09:17:38;;;;;;;;;;;17.30;99.90;;;;;;4926807;29;19927;-79
2021/09/21 09:20:05;;;;;;;;;;;18.00;99.90;;;;;;4925479;29;19973;-78
2021/09/21 09:22:34;;;;;;;;;;;18.10;99.90;;;;;;4921597;29;19931;-75
2021/09/21 09:25:02;;;;;;;;;;;18.00;99.90;;;;;;5075483;23;19933;-73
2021/09/21 09:27:36;;;;;;;;;;;17.60;99.90;;;;;;5044406;28;20023;-75
2021/09/21 09:30:05;;;;;;;;;;;18.60;99.90;;;;;;5046916;28;20360;-77
2021/09/21 09:32:42;;;;;;;;;;;18.30;99.90;;;;;;5047751;22;19933;-78
2021/09/21 09:35:08;;;;;;;;;;;17.40;99.90;;;;;;5011066;28;19950;-79
2021/09/21 09:37:41;;;;;;;;;;;17.70;99.90;;;;;;5005191;28;19930;-80
2021/09/21 09:40:10;;;;;;;;;;;17.70;99.90;;;;;;5008735;28;19925;-80
2021/09/21 09:42:39;;;;;;;;;;;19.10;99.60;;;;;;5020206;28;20021;-78
2021/09/21 09:45:07;;;;;;;;;;;19.40;99.50;;;;;;5005782;28;20467;-78
2021/09/21 09:47:43;;;;;;;;;;;17.90;98.20;;;;;;5023082;28;19968;-77
2021/09/21 09:50:10;;;;;;;;;;;17.40;99.90;;;;;;5007185;28;19934;-76
2021/09/21 09:52:37;;;;;;;;;;;17.60;99.90;;;;;;5002663;28;20384;-77
2021/09/21 09:55:06;;;;;;;;;;;18.20;98.80;;;;;;5009824;28;19965;-78
2021/09/21 09:57:32;;;;;;;;;;;17.90;98.80;;;;;;5004005;28;20088;-78
2021/09/21 09:59:59;;;;;;;;;;;17.90;97.90;;;;;;4993562;28;20016;-78
2021/09/21 10:02:27;;;;;;;;;;;17.90;99.60;;;;;;5009169;28;19924;-78
2021/09/21 10:04:54;;;;;;;;;;;17.20;98.00;;;;;;5013068;28;19932;-78
2021/09/21 10:07:21;;;;;;;;;;;16.70;98.00;;;;;;5023829;28;20001;-78
2021/09/21 10:09:48;;;;;;;;;;;16.30;99.90;;;;;;5004636;28;19930;-77
2021/09/21 10:12:16;;;;;;;;;;;16.60;99.80;;;;;;5004581;28;20506;-78
2021/09/21 10:14:43;;;;;;;;;;;17.10;98.70;;;;;;5012025;28;19926;-78
2021/09/21 10:17:09;;;;;;;;;;;17.50;98.90;;;;;;4993314;28;19936;-77
2021/09/21 10:19:40;;;;;;;;;;;16.60;99.30;;;;;;4999406;28;19934;-76
2021/09/21 10:22:07;;;;;;;;;;;16.80;99.70;;;;;;4996425;28;19926;-77
2021/09/21 10:24:37;;;;;;;;;;;17.20;98.00;;;;;;5000416;28;20281;-79
2021/09/21 10:27:04;;;;;;;;;;;16.80;98.90;;;;;;4993599;28;19938;-78
2021/09/21 10:29:33;;;;;;;;;;;16.90;98.90;;;;;;4996341;28;19932;-80
2021/09/21 10:31:59;;;;;;;;;;;16.90;98.60;;;;;;4996557;28;19926;-83
2021/09/21 10:34:26;;;;;;;;;;;16.80;98.90;;;;;;5026410;28;19923;-82
2021/09/21 10:36:54;;;;;;;;;;;16.80;98.50;;;;;;5002978;28;19996;-78
2021/09/21 10:39:21;;;;;;;;;;;17.00;97.70;;;;;;5016404;28;20020;-74
2021/09/21 10:41:52;;;;;;;;;;;16.90;97.90;;;;;;4997887;28;19926;-80
2021/09/21 10:44:20;;;;;;;;;;;16.60;97.30;;;;;;4996554;28;19965;-80
2021/09/21 10:46:50;;;;;;;;;;;16.90;98.50;;;;;;5011393;28;19933;-78
2021/09/21 10:49:27;;;;;;;;;;;17.00;99.50;;;;;;4989250;28;20291;-81
2021/09/21 10:51:56;;;;;;;;;;;16.90;98.30;;;;;;5000709;28;20366;-78
2021/09/21 10:54:28;;;;;;;;;;;16.70;98.80;;;;;;4998663;28;20020;-77
2021/09/21 10:57:03;;;;;;;;;;;16.80;98.70;;;;;;4993612;28;19936;-85
2021/09/21 10:59:30;;;;;;;;;;;16.90;98.50;;;;;;4995204;28;19926;-82
2021/09/21 11:01:58;;;;;;;;;;;16.70;98.00;;;;;;5012564;28;20024;-83
2021/09/21 11:04:26;;;;;;;;;;;16.60;97.90;;;;;;5018618;28;19930;-79
2021/09/21 11:06:52;;;;;;;;;;;16.80;97.80;;;;;;5015995;28;20348;-80
2021/09/21 11:09:24;;;;;;;;;;;17.10;97.90;;;;;;5004854;28;20036;-81
2021/09/21 11:11:50;;;;;;;;;;;16.90;97.70;;;;;;5007322;28;19984;-81
2021/09/21 11:14:19;;;;;;;;;;;16.70;96.90;;;;;;5014783;28;19924;-80
2021/09/21 11:16:49;;;;;;;;;;;16.70;97.40;;;;;;5016539;28;19932;-81
2021/09/21 11:19:18;;;;;;;;;;;16.80;97.10;;;;;;5007686;28;19929;-80
2021/09/21 11:21:44;;;;;;;;;;;16.90;96.70;;;;;;5015267;28;20007;-81
2021/09/21 11:24:11;;;;;;;;;;;17.30;96.30;;;;;;5039542;28;19926;-80
2021/09/21 11:26:41;;;;;;;;;;;17.50;95.90;;;;;;5000095;28;19925;-81
2021/09/21 11:29:14;;;;;;;;;;;17.70;96.80;;;;;;4994487;28;19969;-81
2021/09/21 11:31:41;;;;;;;;;;;17.70;96.90;;;;;;5019185;28;20008;-79
2021/09/21 11:34:09;;;;;;;;;;;17.60;95.70;;;;;;5037005;28;19944;-80
2021/09/21 11:36:38;;;;;;;;;;;17.20;96.80;;;;;;5012331;28;19954;-81
2021/09/21 11:39:05;;;;;;;;;;;17.40;96.20;;;;;;5044115;28;20012;-81
2021/09/21 11:41:32;;;;;;;;;;;17.60;95.60;;;;;;5008565;28;19925;-80
2021/09/21 11:44:00;;;;;;;;;;;18.00;94.70;;;;;;5010474;28;19931;-82
2021/09/21 11:46:29;;;;;;;;;;;18.40;94.70;;;;;;5002254;28;19926;-80
2021/09/21 11:48:57;;;;;;;;;;;17.50;95.90;;;;;;5000572;28;19932;-81
2021/09/21 11:51:23;;;;;;;;;;;17.50;95.60;;;;;;5008151;28;19931;-81
2021/09/21 11:53:54;;;;;;;;;;;17.50;95.50;;;;;;5003374;28;19999;-81
2021/09/21 11:56:22;;;;;;;;;;;17.30;96.30;;;;;;4997395;28;19926;-80
2021/09/21 11:58:48;;;;;;;;;;;17.60;95.60;;;;;;4993140;28;19925;-79
2021/09/21 12:01:15;;;;;;;;;;;18.00;94.80;;;;;;5008507;28;19993;-79
2021/09/21 12:03:42;;;;;;;;;;;18.10;96.00;;;;;;5029147;28;19923;-81
2021/09/21 12:06:09;;;;;;;;;;;17.90;96.10;;;;;;4998827;28;19926;-80
2021/09/21 12:08:38;;;;;;;;;;;17.60;95.80;;;;;;5014484;28;19940;-80
2021/09/21 12:11:07;;;;;;;;;;;18.00;96.00;;;;;;5008152;28;19936;-75
2021/09/21 12:13:36;;;;;;;;;;;18.00;95.20;;;;;;5001410;28;20123;-76
2021/09/21 12:16:04;;;;;;;;;;;18.00;95.20;;;;;;5015283;28;19925;-74
2021/09/21 12:18:32;;;;;;;;;;;18.00;94.50;;;;;;5001284;28;19929;-80
2021/09/21 12:21:00;;;;;;;;;;;18.10;94.40;;;;;;5027434;28;20292;-80
2021/09/21 12:23:28;;;;;;;;;;;18.10;95.30;;;;;;5006028;28;19932;-79
2021/09/21 12:25:55;;;;;;;;;;;18.20;95.10;;;;;;5006277;28;19939;-78
2021/09/21 12:28:28;;;;;;;;;;;18.40;95.00;;;;;;4998107;28;19958;-78
2021/09/21 12:30:55;;;;;;;;;;;17.90;95.10;;;;;;4996541;28;20059;-80
2021/09/21 12:33:22;;;;;;;;;;;18.30;95.60;;;;;;4992246;28;19925;-79
2021/09/21 12:35:49;;;;;;;;;;;18.60;94.70;;;;;;4990898;28;20388;-78
2021/09/21 12:38:18;;;;;;;;;;;18.80;94.00;;;;;;4992026;28;20726;-79
2021/09/21 12:40:49;;;;;;;;;;;18.40;93.60;;;;;;4994470;28;20008;-79
2021/09/21 12:43:17;;;;;;;;;;;18.10;93.60;;;;;;5017364;28;20303;-80
2021/09/21 12:45:46;;;;;;;;;;;18.30;94.80;;;;;;5011614;28;20372;-80
2021/09/21 12:48:13;;;;;;;;;;;18.30;94.90;;;;;;5015234;28;20056;-82
2021/09/21 12:50:40;;;;;;;;;;;18.20;95.00;;;;;;5025477;28;20371;-82
2021/09/21 12:53:07;;;;;;;;;;;18.50;93.20;;;;;;5000926;28;19930;-82
2021/09/21 12:55:35;;;;;;;;;;;18.80;94.00;;;;;;4998887;28;19926;-80
2021/09/21 12:58:03;;;;;;;;;;;18.10;94.60;;;;;;4989208;28;19987;-81
2021/09/21 13:00:33;;;;;;;;;;;18.00;95.30;;;;;;4995096;28;19937;-81
2021/09/21 13:03:01;;;;;;;;;;;18.20;94.30;;;;;;5000900;28;19933;-76
2021/09/21 13:05:28;;;;;;;;;;;18.60;79.20;;;;;;5005898;28;19933;-80
2021/09/21 13:07:55;;;;;;;;;;;18.40;72.40;;;;;;4990924;28;19945;-74
2021/09/21 13:10:21;;;;;;;;;;;18.10;76.40;;;;;;4994290;28;19926;-74
2021/09/21 13:12:53;;;;;;;;;;;18.20;77.10;;;;;;5018589;28;19940;-76
2021/09/21 13:15:20;;;;;;;;;;;18.20;77.10;;;;;;4998713;28;19926;-76
2021/09/21 13:17:47;;;;;;;;;;;18.20;77.10;;;;;;4997488;28;19968;-77
2021/09/21 13:20:15;;;;;;;;;;;18.30;77.50;;;;;;5000304;28;20013;-75
2021/09/21 13:22:41;;;;;;;;;;;18.30;75.90;;;;;;4987771;28;20353;-76
2021/09/21 13:25:08;;;;;;;;;;;18.70;77.00;;;;;;4994035;28;20344;-76
2021/09/21 13:27:35;;;;;;;;;;;18.80;77.20;;;;;;4991053;28;20381;-79
2021/09/21 13:30:03;;;;;;;;;;;18.30;77.00;;;;;;4997403;28;20432;-78
2021/09/21 13:32:29;;;;;;;;;;;18.20;75.30;;;;;;4993923;28;19925;-79
2021/09/21 13:34:56;;;;;;;;;;;18.40;76.80;;;;;;4992443;28;19925;-78
2021/09/21 13:37:24;;;;;;;;;;;18.70;74.50;;;;;;4996423;28;19969;-79
2021/09/21 13:39:51;;;;;;;;;;;18.90;73.70;;;;;;4994686;28;20379;-78
2021/09/21 13:42:18;;;;;;;;;;;18.80;73.00;;;;;;4988982;28;19932;-78
2021/09/21 13:44:45;;;;;;;;;;;18.60;73.30;;;;;;5000258;28;19926;-79
2021/09/21 13:47:11;;;;;;;;;;;18.70;72.70;;;;;;5011083;28;20020;-79
2021/09/21 13:49:38;;;;;;;;;;;18.70;76.60;;;;;;5003484;28;19924;-76
2021/09/21 13:52:09;;;;;;;;;;;19.00;72.30;;;;;;4992224;28;19930;-77
2021/09/21 13:54:37;;;;;;;;;;;19.10;72.40;;;;;;4995277;28;19933;-78
2021/09/21 13:57:04;;;;;;;;;;;19.10;74.00;;;;;;5009629;28;20012;-76
2021/09/21 13:59:30;;;;;;;;;;;19.10;74.70;;;;;;4997601;28;19936;-75
2021/09/21 14:02:03;;;;;;;;;;;18.90;72.60;;;;;;4999493;28;19926;-79
2021/09/21 14:04:30;;;;;;;;;;;18.90;75.40;;;;;;4991403;28;19934;-78
2021/09/21 14:06:58;;;;;;;;;;;18.50;74.80;;;;;;4996533;28;20032;-74
2021/09/21 14:09:25;;;;;;;;;;;18.40;76.30;;;;;;4989718;28;20383;-77
2021/09/21 14:11:53;;;;;;;;;;;18.50;74.30;;;;;;4997711;28;20012;-79
2021/09/21 14:14:20;;;;;;;;;;;18.70;76.30;;;;;;5000633;28;20020;-78
2021/09/21 14:16:47;;;;;;;;;;;18.70;75.70;;;;;;4998646;28;19934;-77
2021/09/21 14:19:17;;;;;;;;;;;18.80;74.40;;;;;;4996828;28;20013;-80
2021/09/21 14:21:45;;;;;;;;;;;18.90;74.40;;;;;;5004044;28;19954;-83
2021/09/21 14:24:12;;;;;;;;;;;18.90;73.60;;;;;;4997294;28;19930;-80
2021/09/21 14:26:40;;;;;;;;;;;18.70;73.00;;;;;;4994644;28;20009;-78
2021/09/21 14:29:09;;;;;;;;;;;18.70;75.80;;;;;;5022111;28;20014;-83
2021/09/21 14:31:37;;;;;;;;;;;19.00;74.30;;;;;;5011077;28;20032;-79